sensor_id;sensor_type;location;lat;lon;timestamp;temperature;humidity
65770;DHT22;52512;47.650;8.578;2023-05-07T00:01:16;15.80;99.90
65770;DHT22;52512;47.650;8.578;2023-05-07T00:03:45;15.80;99.90
65770;DHT22;52512;47.650;8.578;2023-05-07T00:06:23;15.70;99.90
65770;DHT22;52512;47.650;8.578;2023-05-07T00:09:15;15.70;99.90
65770;DHT22;52512;47.650;8.578;2023-05-07T00:11:52;15.70;99.90
65770;DHT22;52512;47.650;8.578;2023-05-07T00:17:36;15.70;99.90
65770;DHT22;52512;47.650;8.578;2023-05-07T00:20:10;15.60;99.90
65770;DHT22;52512;47.650;8.578;2023-05-07T00:22:51;15.60;99.90
65770;DHT22;52512;47.650;8.578;2023-05-07T00:25:31;15.40;99.90
65770;DHT22;52512;47.650;8.578;2023-05-07T00:28:05;15.40;99.90
65770;DHT22;52512;47.650;8.578;2023-05-07T00:30:36;15.30;99.90
65770;DHT22;52512;47.650;8.578;2023-05-07T00:33:06;15.30;99.90
65770;DHT22;52512;47.650;8.578;2023-05-07T00:35:40;15.30;99.90
65770;DHT22;52512;47.650;8.578;2023-05-07T00:38:11;15.30;99.90
65770;DHT22;52512;47.650;8.578;2023-05-07T00:41:15;15.30;99.90
65770;DHT22;52512;47.650;8.578;2023-05-07T00:44:03;15.20;99.90
65770;DHT22;52512;47.650;8.578;2023-05-07T00:46:51;15.20;99.90
65770;DHT22;52512;47.650;8.578;2023-05-07T00:49:47;15.20;99.90
65770;DHT22;52512;47.650;8.578;2023-05-07T00:52:41;15.10;99.90
65770;DHT22;52512;47.650;8.578;2023-05-07T00:55:18;15.10;99.90
65770;DHT22;52512;47.650;8.578;2023-05-07T00:58:04;15.20;99.90
65770;DHT22;52512;47.650;8.578;2023-05-07T01:00:38;15.10;99.90
65770;DHT22;52512;47.650;8.578;2023-05-07T01:03:23;15.10;99.90
65770;DHT22;52512;47.650;8.578;2023-05-07T01:05:53;15.10;99.90
65770;DHT22;52512;47.650;8.578;2023-05-07T01:08:23;15.00;99.90
65770;DHT22;52512;47.650;8.578;2023-05-07T01:10:51;15.00;99.90
65770;DHT22;52512;47.650;8.578;2023-05-07T01:13:27;14.90;99.90
65770;DHT22;52512;47.650;8.578;2023-05-07T01:15:54;15.00;99.90
65770;DHT22;52512;47.650;8.578;2023-05-07T01:18:25;15.00;99.90
65770;DHT22;52512;47.650;8.578;2023-05-07T01:21:01;15.00;99.90
65770;DHT22;52512;47.650;8.578;2023-05-07T01:23:36;14.90;99.90
65770;DHT22;52512;47.650;8.578;2023-05-07T01:26:05;14.90;99.90
65770;DHT22;52512;47.650;8.578;2023-05-07T01:28:31;14.90;99.90
65770;DHT22;52512;47.650;8.578;2023-05-07T01:31:26;14.80;99.90
65770;DHT22;52512;47.650;8.578;2023-05-07T01:33:54;14.80;99.90
65770;DHT22;52512;47.650;8.578;2023-05-07T01:36:38;14.80;99.90
65770;DHT22;52512;47.650;8.578;2023-05-07T01:39:15;14.80;99.90
65770;DHT22;52512;47.650;8.578;2023-05-07T01:41:53;14.80;99.90
65770;DHT22;52512;47.650;8.578;2023-05-07T01:47:17;14.80;99.90
65770;DHT22;52512;47.650;8.578;2023-05-07T01:49:49;14.70;99.90
65770;DHT22;52512;47.650;8.578;2023-05-07T01:52:24;14.70;99.90
65770;DHT22;52512;47.650;8.578;2023-05-07T01:54:59;14.70;99.90
65770;DHT22;52512;47.650;8.578;2023-05-07T01:57:45;14.70;99.90
65770;DHT22;52512;47.650;8.578;2023-05-07T02:00:29;14.60;99.90
65770;DHT22;52512;47.650;8.578;2023-05-07T02:03:12;14.60;99.90
65770;DHT22;52512;47.650;8.578;2023-05-07T02:05:43;14.60;99.90
65770;DHT22;52512;47.650;8.578;2023-05-07T02:08:17;14.60;99.90
65770;DHT22;52512;47.650;8.578;2023-05-07T02:10:54;14.50;99.90
65770;DHT22;52512;47.650;8.578;2023-05-07T02:13:20;14.50;99.90
65770;DHT22;52512;47.650;8.578;2023-05-07T02:15:47;14.50;99.90
65770;DHT22;52512;47.650;8.578;2023-05-07T02:18:19;14.40;99.90
65770;DHT22;52512;47.650;8.578;2023-05-07T02:20:50;14.40;99.90
65770;DHT22;52512;47.650;8.578;2023-05-07T02:26:12;14.40;99.90
65770;DHT22;52512;47.650;8.578;2023-05-07T02:28:38;14.30;99.90
65770;DHT22;52512;47.650;8.578;2023-05-07T02:31:15;14.30;99.90
65770;DHT22;52512;47.650;8.578;2023-05-07T02:33:41;14.20;99.90
65770;DHT22;52512;47.650;8.578;2023-05-07T02:36:14;14.20;99.90
65770;DHT22;52512;47.650;8.578;2023-05-07T02:38:40;14.10;99.90
65770;DHT22;52512;47.650;8.578;2023-05-07T02:41:06;14.10;99.90
65770;DHT22;52512;47.650;8.578;2023-05-07T02:43:37;14.10;99.90
65770;DHT22;52512;47.650;8.578;2023-05-07T02:46:09;14.10;99.90
65770;DHT22;52512;47.650;8.578;2023-05-07T02:48:43;14.10;99.90
65770;DHT22;52512;47.650;8.578;2023-05-07T02:51:20;14.10;99.90
65770;DHT22;52512;47.650;8.578;2023-05-07T02:54:07;14.00;99.90
65770;DHT22;52512;47.650;8.578;2023-05-07T02:56:45;14.00;99.90
65770;DHT22;52512;47.650;8.578;2023-05-07T02:59:17;14.00;99.90
65770;DHT22;52512;47.650;8.578;2023-05-07T03:02:01;13.90;99.90
65770;DHT22;52512;47.650;8.578;2023-05-07T03:04:29;13.90;99.90
65770;DHT22;52512;47.650;8.578;2023-05-07T03:06:58;13.90;99.90
65770;DHT22;52512;47.650;8.578;2023-05-07T03:09:24;13.90;99.90
65770;DHT22;52512;47.650;8.578;2023-05-07T03:11:49;13.90;99.90
65770;DHT22;52512;47.650;8.578;2023-05-07T03:14:15;13.90;99.90
65770;DHT22;52512;47.650;8.578;2023-05-07T03:16:41;13.70;99.90
65770;DHT22;52512;47.650;8.578;2023-05-07T03:19:12;13.70;99.90
65770;DHT22;52512;47.650;8.578;2023-05-07T03:21:40;13.70;99.90
65770;DHT22;52512;47.650;8.578;2023-05-07T03:24:06;13.70;99.90
65770;DHT22;52512;47.650;8.578;2023-05-07T03:26:34;13.70;99.90
65770;DHT22;52512;47.650;8.578;2023-05-07T03:29:03;13.70;99.90
65770;DHT22;52512;47.650;8.578;2023-05-07T03:31:32;13.70;99.90
65770;DHT22;52512;47.650;8.578;2023-05-07T03:33:57;13.60;99.90
65770;DHT22;52512;47.650;8.578;2023-05-07T03:36:23;13.50;99.90
65770;DHT22;52512;47.650;8.578;2023-05-07T03:38:50;13.50;99.90
65770;DHT22;52512;47.650;8.578;2023-05-07T03:41:16;13.50;99.90
65770;DHT22;52512;47.650;8.578;2023-05-07T03:43:41;13.50;99.90
65770;DHT22;52512;47.650;8.578;2023-05-07T03:46:07;13.50;99.90
65770;DHT22;52512;47.650;8.578;2023-05-07T03:48:33;13.50;99.90
65770;DHT22;52512;47.650;8.578;2023-05-07T03:50:59;13.50;99.90
65770;DHT22;52512;47.650;8.578;2023-05-07T03:53:25;13.50;99.90
65770;DHT22;52512;47.650;8.578;2023-05-07T03:55:50;13.40;99.90
65770;DHT22;52512;47.650;8.578;2023-05-07T03:58:22;13.40;99.90
65770;DHT22;52512;47.650;8.578;2023-05-07T04:00:48;13.40;99.90
65770;DHT22;52512;47.650;8.578;2023-05-07T04:03:14;13.40;99.90
65770;DHT22;52512;47.650;8.578;2023-05-07T04:05:42;13.30;99.90
65770;DHT22;52512;47.650;8.578;2023-05-07T04:08:08;13.30;99.90
65770;DHT22;52512;47.650;8.578;2023-05-07T04:10:33;13.30;99.90
65770;DHT22;52512;47.650;8.578;2023-05-07T04:12:59;13.30;99.90
65770;DHT22;52512;47.650;8.578;2023-05-07T04:15:27;13.30;99.90
65770;DHT22;52512;47.650;8.578;2023-05-07T04:17:53;13.20;99.90
65770;DHT22;52512;47.650;8.578;2023-05-07T04:20:19;13.20;99.90
65770;DHT22;52512;47.650;8.578;2023-05-07T04:22:45;13.20;99.90
65770;DHT22;52512;47.650;8.578;2023-05-07T04:25:10;13.20;99.90
65770;DHT22;52512;47.650;8.578;2023-05-07T04:27:36;13.20;99.90
65770;DHT22;52512;47.650;8.578;2023-05-07T04:30:03;13.10;99.90
65770;DHT22;52512;47.650;8.578;2023-05-07T04:32:29;13.10;99.90
65770;DHT22;52512;47.650;8.578;2023-05-07T04:34:56;13.10;99.90
65770;DHT22;52512;47.650;8.578;2023-05-07T04:37:22;13.10;99.90
65770;DHT22;52512;47.650;8.578;2023-05-07T04:39:48;13.00;99.90
65770;DHT22;52512;47.650;8.578;2023-05-07T04:42:17;13.00;99.90
65770;DHT22;52512;47.650;8.578;2023-05-07T04:44:44;13.00;99.90
65770;DHT22;52512;47.650;8.578;2023-05-07T04:47:11;13.00;99.90
65770;DHT22;52512;47.650;8.578;2023-05-07T04:49:38;12.90;99.90
65770;DHT22;52512;47.650;8.578;2023-05-07T04:52:04;12.90;99.90
65770;DHT22;52512;47.650;8.578;2023-05-07T04:54:30;12.90;99.90
65770;DHT22;52512;47.650;8.578;2023-05-07T04:56:56;13.00;99.90
65770;DHT22;52512;47.650;8.578;2023-05-07T04:59:22;13.00;99.90
65770;DHT22;52512;47.650;8.578;2023-05-07T05:01:51;13.00;99.90
65770;DHT22;52512;47.650;8.578;2023-05-07T05:04:19;13.00;99.90
65770;DHT22;52512;47.650;8.578;2023-05-07T05:06:45;13.00;99.90
65770;DHT22;52512;47.650;8.578;2023-05-07T05:09:19;13.00;99.90
65770;DHT22;52512;47.650;8.578;2023-05-07T05:11:45;13.00;99.90
65770;DHT22;52512;47.650;8.578;2023-05-07T05:14:11;13.10;99.90
65770;DHT22;52512;47.650;8.578;2023-05-07T05:16:45;13.10;99.90
65770;DHT22;52512;47.650;8.578;2023-05-07T05:19:23;13.10;99.90
65770;DHT22;52512;47.650;8.578;2023-05-07T05:21:49;13.10;99.90
65770;DHT22;52512;47.650;8.578;2023-05-07T05:25:02;13.10;99.90
65770;DHT22;52512;47.650;8.578;2023-05-07T05:27:31;13.10;99.90
65770;DHT22;52512;47.650;8.578;2023-05-07T05:30:00;13.20;99.90
65770;DHT22;52512;47.650;8.578;2023-05-07T05:32:25;13.20;99.90
65770;DHT22;52512;47.650;8.578;2023-05-07T05:34:51;13.20;99.90
65770;DHT22;52512;47.650;8.578;2023-05-07T05:37:17;13.20;99.90
65770;DHT22;52512;47.650;8.578;2023-05-07T05:39:42;13.30;99.90
65770;DHT22;52512;47.650;8.578;2023-05-07T05:42:08;13.30;99.90
65770;DHT22;52512;47.650;8.578;2023-05-07T05:44:33;13.30;99.90
65770;DHT22;52512;47.650;8.578;2023-05-07T05:46:59;13.30;99.90
65770;DHT22;52512;47.650;8.578;2023-05-07T05:49:25;13.30;99.90
65770;DHT22;52512;47.650;8.578;2023-05-07T05:51:51;13.30;99.90
65770;DHT22;52512;47.650;8.578;2023-05-07T05:54:17;13.40;99.90
65770;DHT22;52512;47.650;8.578;2023-05-07T05:56:43;13.40;99.90
65770;DHT22;52512;47.650;8.578;2023-05-07T05:59:08;13.40;99.90
65770;DHT22;52512;47.650;8.578;2023-05-07T06:01:34;13.50;99.90
65770;DHT22;52512;47.650;8.578;2023-05-07T06:04:00;13.50;99.90
65770;DHT22;52512;47.650;8.578;2023-05-07T06:06:26;13.50;99.90
65770;DHT22;52512;47.650;8.578;2023-05-07T06:09:14;13.60;99.90
65770;DHT22;52512;47.650;8.578;2023-05-07T06:15:52;13.50;99.90
65770;DHT22;52512;47.650;8.578;2023-05-07T06:18:32;13.70;99.90
65770;DHT22;52512;47.650;8.578;2023-05-07T06:21:02;13.80;99.90
65770;DHT22;52512;47.650;8.578;2023-05-07T06:23:33;13.80;99.90
65770;DHT22;52512;47.650;8.578;2023-05-07T06:26:04;13.90;99.90
65770;DHT22;52512;47.650;8.578;2023-05-07T06:28:32;14.00;99.90
65770;DHT22;52512;47.650;8.578;2023-05-07T06:31:35;14.10;99.90
65770;DHT22;52512;47.650;8.578;2023-05-07T06:35:09;14.30;99.90
65770;DHT22;52512;47.650;8.578;2023-05-07T06:38:06;14.40;99.90
65770;DHT22;52512;47.650;8.578;2023-05-07T06:41:00;14.50;99.90
65770;DHT22;52512;47.650;8.578;2023-05-07T06:47:09;14.70;99.90
65770;DHT22;52512;47.650;8.578;2023-05-07T06:49:54;14.80;99.90
65770;DHT22;52512;47.650;8.578;2023-05-07T06:55:30;15.00;99.90
65770;DHT22;52512;47.650;8.578;2023-05-07T06:57:56;15.10;99.90
65770;DHT22;52512;47.650;8.578;2023-05-07T07:00:29;15.20;99.90
65770;DHT22;52512;47.650;8.578;2023-05-07T07:02:56;15.40;99.90
65770;DHT22;52512;47.650;8.578;2023-05-07T07:05:22;15.50;99.90
65770;DHT22;52512;47.650;8.578;2023-05-07T07:07:48;15.60;99.90
65770;DHT22;52512;47.650;8.578;2023-05-07T07:10:20;15.60;99.90
65770;DHT22;52512;47.650;8.578;2023-05-07T07:13:08;15.70;99.90
65770;DHT22;52512;47.650;8.578;2023-05-07T07:26:37;16.10;99.90
65770;DHT22;52512;47.650;8.578;2023-05-07T07:29:14;16.20;99.90
65770;DHT22;52512;47.650;8.578;2023-05-07T07:32:47;16.30;99.90
65770;DHT22;52512;47.650;8.578;2023-05-07T07:36:03;16.20;99.90
65770;DHT22;52512;47.650;8.578;2023-05-07T07:38:53;16.40;99.90
65770;DHT22;52512;47.650;8.578;2023-05-07T07:41:54;16.30;99.90
65770;DHT22;52512;47.650;8.578;2023-05-07T07:44:43;16.40;99.90
65770;DHT22;52512;47.650;8.578;2023-05-07T07:48:08;16.50;99.90
65770;DHT22;52512;47.650;8.578;2023-05-07T07:54:29;16.70;99.90
65770;DHT22;52512;47.650;8.578;2023-05-07T07:57:41;16.80;99.90
65770;DHT22;52512;47.650;8.578;2023-05-07T08:00:26;16.90;99.90
65770;DHT22;52512;47.650;8.578;2023-05-07T08:03:03;16.90;99.90
65770;DHT22;52512;47.650;8.578;2023-05-07T08:05:34;17.00;99.90
65770;DHT22;52512;47.650;8.578;2023-05-07T08:08:04;17.10;99.90
65770;DHT22;52512;47.650;8.578;2023-05-07T08:10:30;17.20;99.90
65770;DHT22;52512;47.650;8.578;2023-05-07T08:12:59;17.30;99.90
65770;DHT22;52512;47.650;8.578;2023-05-07T08:15:25;17.40;99.90
65770;DHT22;52512;47.650;8.578;2023-05-07T08:18:04;17.30;99.90
65770;DHT22;52512;47.650;8.578;2023-05-07T08:20:30;17.50;99.90
65770;DHT22;52512;47.650;8.578;2023-05-07T08:22:56;17.60;99.90
65770;DHT22;52512;47.650;8.578;2023-05-07T08:25:22;17.70;99.90
65770;DHT22;52512;47.650;8.578;2023-05-07T08:27:47;17.80;99.90
65770;DHT22;52512;47.650;8.578;2023-05-07T08:30:13;17.90;99.90
65770;DHT22;52512;47.650;8.578;2023-05-07T08:32:39;18.00;99.90
65770;DHT22;52512;47.650;8.578;2023-05-07T08:35:05;18.00;99.90
65770;DHT22;52512;47.650;8.578;2023-05-07T08:37:31;18.10;99.90
65770;DHT22;52512;47.650;8.578;2023-05-07T08:39:57;18.20;99.90
65770;DHT22;52512;47.650;8.578;2023-05-07T08:42:23;18.20;99.90
65770;DHT22;52512;47.650;8.578;2023-05-07T08:44:51;18.40;99.90
65770;DHT22;52512;47.650;8.578;2023-05-07T08:47:22;18.50;99.90
65770;DHT22;52512;47.650;8.578;2023-05-07T08:49:53;18.60;99.90
65770;DHT22;52512;47.650;8.578;2023-05-07T08:52:20;18.60;99.90
65770;DHT22;52512;47.650;8.578;2023-05-07T08:54:46;18.70;99.90
65770;DHT22;52512;47.650;8.578;2023-05-07T08:57:11;18.70;99.90
65770;DHT22;52512;47.650;8.578;2023-05-07T08:59:37;18.80;99.90
65770;DHT22;52512;47.650;8.578;2023-05-07T09:02:03;18.90;99.90
65770;DHT22;52512;47.650;8.578;2023-05-07T09:04:29;19.00;99.90
65770;DHT22;52512;47.650;8.578;2023-05-07T09:06:57;19.10;99.90
65770;DHT22;52512;47.650;8.578;2023-05-07T09:09:29;19.10;99.90
65770;DHT22;52512;47.650;8.578;2023-05-07T09:11:57;19.20;99.90
65770;DHT22;52512;47.650;8.578;2023-05-07T09:14:27;19.20;99.90
65770;DHT22;52512;47.650;8.578;2023-05-07T09:16:54;19.30;99.90
65770;DHT22;52512;47.650;8.578;2023-05-07T09:19:24;19.30;99.90
65770;DHT22;52512;47.650;8.578;2023-05-07T09:21:50;19.30;99.90
65770;DHT22;52512;47.650;8.578;2023-05-07T09:24:22;19.40;99.90
65770;DHT22;52512;47.650;8.578;2023-05-07T09:26:48;19.50;99.90
65770;DHT22;52512;47.650;8.578;2023-05-07T09:29:15;19.50;99.90
65770;DHT22;52512;47.650;8.578;2023-05-07T09:31:42;19.60;99.90
65770;DHT22;52512;47.650;8.578;2023-05-07T09:34:08;19.60;99.90
65770;DHT22;52512;47.650;8.578;2023-05-07T09:36:34;19.70;99.90
65770;DHT22;52512;47.650;8.578;2023-05-07T09:39:00;19.70;99.90
65770;DHT22;52512;47.650;8.578;2023-05-07T09:41:26;19.90;99.90
65770;DHT22;52512;47.650;8.578;2023-05-07T09:43:55;19.90;99.90
65770;DHT22;52512;47.650;8.578;2023-05-07T09:46:27;20.00;99.90
65770;DHT22;52512;47.650;8.578;2023-05-07T09:48:56;20.10;99.90
65770;DHT22;52512;47.650;8.578;2023-05-07T09:51:25;20.10;99.90
65770;DHT22;52512;47.650;8.578;2023-05-07T09:53:54;20.20;99.90
65770;DHT22;52512;47.650;8.578;2023-05-07T09:56:21;20.30;99.90
65770;DHT22;52512;47.650;8.578;2023-05-07T09:58:49;20.20;99.90
65770;DHT22;52512;47.650;8.578;2023-05-07T10:01:17;20.30;99.90
65770;DHT22;52512;47.650;8.578;2023-05-07T10:03:45;20.30;99.90
65770;DHT22;52512;47.650;8.578;2023-05-07T10:06:12;20.40;99.90
65770;DHT22;52512;47.650;8.578;2023-05-07T10:08:38;20.40;99.90
65770;DHT22;52512;47.650;8.578;2023-05-07T10:11:05;20.50;99.90
65770;DHT22;52512;47.650;8.578;2023-05-07T10:13:35;20.60;99.90
65770;DHT22;52512;47.650;8.578;2023-05-07T10:16:04;20.60;99.90
65770;DHT22;52512;47.650;8.578;2023-05-07T10:18:31;20.70;99.90
65770;DHT22;52512;47.650;8.578;2023-05-07T10:21:11;20.80;99.90
65770;DHT22;52512;47.650;8.578;2023-05-07T10:23:41;20.80;99.90
65770;DHT22;52512;47.650;8.578;2023-05-07T10:26:10;20.80;99.90
65770;DHT22;52512;47.650;8.578;2023-05-07T10:28:41;20.90;99.90
65770;DHT22;52512;47.650;8.578;2023-05-07T10:33:42;21.00;99.90
65770;DHT22;52512;47.650;8.578;2023-05-07T10:36:10;21.10;99.90
65770;DHT22;52512;47.650;8.578;2023-05-07T10:38:36;21.20;99.90
65770;DHT22;52512;47.650;8.578;2023-05-07T10:41:02;21.30;99.90
65770;DHT22;52512;47.650;8.578;2023-05-07T10:43:41;21.30;99.90
65770;DHT22;52512;47.650;8.578;2023-05-07T10:46:23;21.40;99.90
65770;DHT22;52512;47.650;8.578;2023-05-07T10:51:32;21.50;99.90
65770;DHT22;52512;47.650;8.578;2023-05-07T10:56:39;21.70;99.90
65770;DHT22;52512;47.650;8.578;2023-05-07T11:01:54;21.80;99.90
65770;DHT22;52512;47.650;8.578;2023-05-07T11:04:20;21.80;99.90
65770;DHT22;52512;47.650;8.578;2023-05-07T11:09:55;21.80;99.90
65770;DHT22;52512;47.650;8.578;2023-05-07T11:15:12;21.80;99.90
65770;DHT22;52512;47.650;8.578;2023-05-07T11:17:58;21.90;99.90
65770;DHT22;52512;47.650;8.578;2023-05-07T11:20:53;21.90;99.90
65770;DHT22;52512;47.650;8.578;2023-05-07T11:26:06;21.90;99.90
65770;DHT22;52512;47.650;8.578;2023-05-07T11:28:37;21.80;99.90
65770;DHT22;52512;47.650;8.578;2023-05-07T11:31:06;21.90;99.90
65770;DHT22;52512;47.650;8.578;2023-05-07T11:33:32;21.90;99.90
65770;DHT22;52512;47.650;8.578;2023-05-07T11:36:03;21.90;99.90
65770;DHT22;52512;47.650;8.578;2023-05-07T11:38:36;21.80;99.90
65770;DHT22;52512;47.650;8.578;2023-05-07T11:41:04;21.80;99.90
65770;DHT22;52512;47.650;8.578;2023-05-07T11:43:31;21.80;99.90
65770;DHT22;52512;47.650;8.578;2023-05-07T11:46:11;21.90;99.90
65770;DHT22;52512;47.650;8.578;2023-05-07T11:48:38;21.90;99.90
65770;DHT22;52512;47.650;8.578;2023-05-07T11:51:05;21.80;99.90
65770;DHT22;52512;47.650;8.578;2023-05-07T11:53:39;21.80;99.90
65770;DHT22;52512;47.650;8.578;2023-05-07T11:56:09;21.80;99.90
65770;DHT22;52512;47.650;8.578;2023-05-07T11:58:36;21.90;99.90
65770;DHT22;52512;47.650;8.578;2023-05-07T12:01:02;21.90;99.90
65770;DHT22;52512;47.650;8.578;2023-05-07T12:03:28;21.90;99.90
65770;DHT22;52512;47.650;8.578;2023-05-07T12:05:54;21.90;99.90
65770;DHT22;52512;47.650;8.578;2023-05-07T12:08:20;21.90;99.90
65770;DHT22;52512;47.650;8.578;2023-05-07T12:10:49;22.00;99.90
65770;DHT22;52512;47.650;8.578;2023-05-07T12:13:20;22.00;99.90
65770;DHT22;52512;47.650;8.578;2023-05-07T12:15:55;22.10;99.90
65770;DHT22;52512;47.650;8.578;2023-05-07T12:18:26;22.10;99.90
65770;DHT22;52512;47.650;8.578;2023-05-07T12:20:55;22.10;99.90
65770;DHT22;52512;47.650;8.578;2023-05-07T12:23:22;22.20;99.90
65770;DHT22;52512;47.650;8.578;2023-05-07T12:25:48;22.30;99.90
65770;DHT22;52512;47.650;8.578;2023-05-07T12:28:15;22.40;99.90
65770;DHT22;52512;47.650;8.578;2023-05-07T12:30:43;22.40;99.90
65770;DHT22;52512;47.650;8.578;2023-05-07T12:33:09;22.40;99.90
65770;DHT22;52512;47.650;8.578;2023-05-07T12:35:40;22.60;99.90
65770;DHT22;52512;47.650;8.578;2023-05-07T12:38:11;22.60;99.90
65770;DHT22;52512;47.650;8.578;2023-05-07T12:43:07;22.70;99.90
65770;DHT22;52512;47.650;8.578;2023-05-07T12:45:41;22.80;99.90
65770;DHT22;52512;47.650;8.578;2023-05-07T13:37:22;22.40;99.20
65770;DHT22;52512;47.650;8.578;2023-05-07T13:39:58;22.40;99.40
65770;DHT22;52512;47.650;8.578;2023-05-07T13:42:24;22.40;99.70
65770;DHT22;52512;47.650;8.578;2023-05-07T13:44:50;22.40;99.70
65770;DHT22;52512;47.650;8.578;2023-05-07T13:47:19;22.30;99.90
65770;DHT22;52512;47.650;8.578;2023-05-07T13:52:54;22.30;99.90
65770;DHT22;52512;47.650;8.578;2023-05-07T13:55:29;22.20;99.90
65770;DHT22;52512;47.650;8.578;2023-05-07T13:58:07;22.00;99.90
65770;DHT22;52512;47.650;8.578;2023-05-07T14:00:36;22.00;99.90
65770;DHT22;52512;47.650;8.578;2023-05-07T14:03:04;22.00;99.90
65770;DHT22;52512;47.650;8.578;2023-05-07T14:05:30;22.10;99.90
65770;DHT22;52512;47.650;8.578;2023-05-07T14:07:57;22.10;99.90
65770;DHT22;52512;47.650;8.578;2023-05-07T14:10:23;22.10;99.90
65770;DHT22;52512;47.650;8.578;2023-05-07T14:12:54;22.20;99.90
65770;DHT22;52512;47.650;8.578;2023-05-07T14:15:34;22.20;99.90
65770;DHT22;52512;47.650;8.578;2023-05-07T14:18:30;22.20;99.90
65770;DHT22;52512;47.650;8.578;2023-05-07T14:21:25;22.20;99.90
65770;DHT22;52512;47.650;8.578;2023-05-07T14:23:59;22.20;99.90
65770;DHT22;52512;47.650;8.578;2023-05-07T14:30:10;22.10;99.90
65770;DHT22;52512;47.650;8.578;2023-05-07T14:36:48;22.00;99.90
65770;DHT22;52512;47.650;8.578;2023-05-07T14:47:05;22.10;99.90
65770;DHT22;52512;47.650;8.578;2023-05-07T14:49:47;22.20;99.90
65770;DHT22;52512;47.650;8.578;2023-05-07T14:52:13;22.10;99.90
65770;DHT22;52512;47.650;8.578;2023-05-07T14:54:39;22.10;99.90
65770;DHT22;52512;47.650;8.578;2023-05-07T14:57:05;22.10;99.90
65770;DHT22;52512;47.650;8.578;2023-05-07T14:59:32;22.00;99.90
65770;DHT22;52512;47.650;8.578;2023-05-07T15:01:58;22.00;99.90
65770;DHT22;52512;47.650;8.578;2023-05-07T15:04:24;22.00;99.90
65770;DHT22;52512;47.650;8.578;2023-05-07T15:06:50;22.00;99.90
65770;DHT22;52512;47.650;8.578;2023-05-07T15:09:19;22.00;99.90
65770;DHT22;52512;47.650;8.578;2023-05-07T15:11:44;21.90;99.90
65770;DHT22;52512;47.650;8.578;2023-05-07T15:14:10;21.90;99.80
65770;DHT22;52512;47.650;8.578;2023-05-07T15:16:36;21.80;99.50
65770;DHT22;52512;47.650;8.578;2023-05-07T15:19:01;21.70;99.50
65770;DHT22;52512;47.650;8.578;2023-05-07T15:21:27;21.60;99.70
65770;DHT22;52512;47.650;8.578;2023-05-07T15:23:53;21.60;99.80
65770;DHT22;52512;47.650;8.578;2023-05-07T15:26:19;21.50;99.90
65770;DHT22;52512;47.650;8.578;2023-05-07T15:28:45;21.40;99.90
65770;DHT22;52512;47.650;8.578;2023-05-07T15:31:11;21.40;99.90
65770;DHT22;52512;47.650;8.578;2023-05-07T15:33:37;21.30;99.90
65770;DHT22;52512;47.650;8.578;2023-05-07T15:36:04;21.30;99.90
65770;DHT22;52512;47.650;8.578;2023-05-07T15:38:37;21.10;99.90
65770;DHT22;52512;47.650;8.578;2023-05-07T15:41:03;21.00;99.90
65770;DHT22;52512;47.650;8.578;2023-05-07T15:43:31;20.90;99.90
65770;DHT22;52512;47.650;8.578;2023-05-07T15:45:57;20.80;99.90
65770;DHT22;52512;47.650;8.578;2023-05-07T15:48:23;20.80;99.90
65770;DHT22;52512;47.650;8.578;2023-05-07T15:50:48;20.70;99.90
65770;DHT22;52512;47.650;8.578;2023-05-07T15:53:14;20.60;99.90
65770;DHT22;52512;47.650;8.578;2023-05-07T15:55:41;20.50;99.90
65770;DHT22;52512;47.650;8.578;2023-05-07T15:58:08;20.40;99.90
65770;DHT22;52512;47.650;8.578;2023-05-07T16:00:33;20.40;99.90
65770;DHT22;52512;47.650;8.578;2023-05-07T16:03:00;20.30;99.90
65770;DHT22;52512;47.650;8.578;2023-05-07T16:05:26;20.30;99.90
65770;DHT22;52512;47.650;8.578;2023-05-07T16:07:52;20.30;99.90
65770;DHT22;52512;47.650;8.578;2023-05-07T16:10:18;20.20;99.90
65770;DHT22;52512;47.650;8.578;2023-05-07T16:12:43;20.20;99.90
65770;DHT22;52512;47.650;8.578;2023-05-07T16:15:09;20.20;99.90
65770;DHT22;52512;47.650;8.578;2023-05-07T16:17:35;20.10;99.90
65770;DHT22;52512;47.650;8.578;2023-05-07T16:20:02;20.10;99.90
65770;DHT22;52512;47.650;8.578;2023-05-07T16:22:31;20.20;99.90
65770;DHT22;52512;47.650;8.578;2023-05-07T16:24:57;20.10;99.90
65770;DHT22;52512;47.650;8.578;2023-05-07T16:27:23;20.10;99.90
65770;DHT22;52512;47.650;8.578;2023-05-07T16:29:49;20.00;99.90
65770;DHT22;52512;47.650;8.578;2023-05-07T16:32:14;20.00;99.90
65770;DHT22;52512;47.650;8.578;2023-05-07T16:34:40;20.00;99.90
65770;DHT22;52512;47.650;8.578;2023-05-07T16:37:06;20.00;99.90
65770;DHT22;52512;47.650;8.578;2023-05-07T16:39:32;20.00;99.90
65770;DHT22;52512;47.650;8.578;2023-05-07T16:41:57;20.00;99.90
65770;DHT22;52512;47.650;8.578;2023-05-07T16:44:23;20.00;99.90
65770;DHT22;52512;47.650;8.578;2023-05-07T16:46:49;19.90;99.90
65770;DHT22;52512;47.650;8.578;2023-05-07T16:49:14;19.90;99.90
65770;DHT22;52512;47.650;8.578;2023-05-07T16:51:40;19.90;99.90
65770;DHT22;52512;47.650;8.578;2023-05-07T16:54:07;19.80;99.90
65770;DHT22;52512;47.650;8.578;2023-05-07T16:56:33;19.80;99.90
65770;DHT22;52512;47.650;8.578;2023-05-07T16:58:59;19.70;99.90
65770;DHT22;52512;47.650;8.578;2023-05-07T17:01:25;19.60;99.90
65770;DHT22;52512;47.650;8.578;2023-05-07T17:03:57;19.60;99.90
65770;DHT22;52512;47.650;8.578;2023-05-07T17:06:22;19.50;99.90
65770;DHT22;52512;47.650;8.578;2023-05-07T17:08:48;19.40;99.90
65770;DHT22;52512;47.650;8.578;2023-05-07T17:11:16;19.40;99.90
65770;DHT22;52512;47.650;8.578;2023-05-07T17:13:42;19.40;99.90
65770;DHT22;52512;47.650;8.578;2023-05-07T17:16:08;19.30;99.90
65770;DHT22;52512;47.650;8.578;2023-05-07T17:18:33;19.20;99.90
65770;DHT22;52512;47.650;8.578;2023-05-07T17:20:59;19.20;99.90
65770;DHT22;52512;47.650;8.578;2023-05-07T17:23:25;19.20;99.90
65770;DHT22;52512;47.650;8.578;2023-05-07T17:25:51;19.10;99.90
65770;DHT22;52512;47.650;8.578;2023-05-07T17:28:16;19.10;99.90
65770;DHT22;52512;47.650;8.578;2023-05-07T17:30:42;19.10;99.90
65770;DHT22;52512;47.650;8.578;2023-05-07T17:33:08;19.10;99.90
65770;DHT22;52512;47.650;8.578;2023-05-07T17:35:36;19.10;99.90
65770;DHT22;52512;47.650;8.578;2023-05-07T17:38:02;19.10;99.90
65770;DHT22;52512;47.650;8.578;2023-05-07T17:40:30;19.20;99.90
65770;DHT22;52512;47.650;8.578;2023-05-07T17:42:56;19.10;99.90
65770;DHT22;52512;47.650;8.578;2023-05-07T17:45:40;19.10;99.90
65770;DHT22;52512;47.650;8.578;2023-05-07T17:48:10;19.10;99.90
65770;DHT22;52512;47.650;8.578;2023-05-07T17:50:49;19.10;99.90
65770;DHT22;52512;47.650;8.578;2023-05-07T17:53:23;19.10;99.90
65770;DHT22;52512;47.650;8.578;2023-05-07T17:56:08;19.10;99.90
65770;DHT22;52512;47.650;8.578;2023-05-07T17:58:45;19.00;99.90